SAZT/TDL METAR and TAF weather

Enter ICAO airport designator
Station Type Date Time Source
SAZT METAR 2019/12/14 23:23 UTC NOAA

SAZT 142323Z 35026G34KT 8000 TSRA SCT035 FEW040CB OVC080 21/13 Q1012


Station Type Date Time Source
SAZT Decoded METAR 2019/12/14 23:23 UTC NOAA

Tandil Aerodrome, Argentina (SAZT) 37-14S 059-15W 175M
Dec 14, 2019 - 06:23 PM EST / 2019.12.14 2323 UTC
Wind: from the N (350 degrees) at 30 MPH (26 KT) gusting to 39 MPH (34 KT):0
Visibility: 4 mile(s):0
Sky conditions: overcast
Weather: rain with thunder; Cumulonimbus clouds observed
Temperature: 69 F (21 C)
Dew Point: 55 F (13 C)
Relative Humidity: 60%
Pressure (altimeter): 29.88 in. Hg (1012 hPa)
ob: SAZT 142323Z 35026G34KT 8000 TSRA SCT035 FEW040CB OVC080 21/13 Q1012
cycle: 23

Station Type Date Time Source
SAZT TAF UTC NOAA

Error!

Example: see airport list